Time;durP1;ratioP1;P1;durP2;ratioP2;P2;SDS_P1;SDS_P2;PMS_P1;PMS_P2;Temp;Humidity;BMP_temperature;BMP_pressure;BME280_temperature;BME280_humidity;BME280_pressure;Samples;Min_cycle;Max_cycle;Signal;HPM_P1;HPM_P2
2023/08/11 00:02:00;;;;;;;3.10;1.98;;;11.70;99.90;;;;;;5091388;28;20058;-65
2023/08/11 00:04:38;;;;;;;1.70;1.60;;;11.70;99.90;;;;;;5093260;29;20043;-67
2023/08/11 00:07:10;;;;;;;2.90;2.00;;;11.80;99.90;;;;;;5093189;28;20518;-66
2023/08/11 00:09:45;;;;;;;1.58;1.48;;;11.80;99.90;;;;;;5071669;28;20050;-65
2023/08/11 00:12:20;;;;;;;2.95;1.90;;;11.80;99.90;;;;;;5086947;28;20327;-66
2023/08/11 00:14:52;;;;;;;3.10;1.92;;;11.90;99.90;;;;;;5097680;29;20041;-68
2023/08/11 00:17:24;;;;;;;2.22;2.03;;;11.90;99.90;;;;;;5069995;28;20552;-67
2023/08/11 00:19:59;;;;;;;2.38;1.77;;;11.80;99.90;;;;;;5089295;28;20043;-66
2023/08/11 00:22:34;;;;;;;2.03;1.83;;;11.80;99.90;;;;;;5094921;28;20039;-66
2023/08/11 00:25:06;;;;;;;2.63;2.00;;;11.80;99.90;;;;;;5098290;28;20462;-67
2023/08/11 00:27:38;;;;;;;1.60;1.50;;;11.80;99.90;;;;;;5094631;29;20051;-65
2023/08/11 00:30:10;;;;;;;2.72;1.88;;;11.70;99.90;;;;;;5090710;28;20048;-68
2023/08/11 00:32:45;;;;;;;2.67;2.30;;;11.70;99.90;;;;;;5095875;28;20055;-67
2023/08/11 00:35:16;;;;;;;;;;;11.70;99.90;;;;;;5078028;29;20073;-67
2023/08/11 00:37:53;;;;;;;2.03;1.70;;;11.70;99.90;;;;;;5126729;28;19929;-68
2023/08/11 00:40:29;;;;;;;3.58;2.15;;;11.70;99.90;;;;;;5095972;28;20102;-68
2023/08/11 00:43:03;;;;;;;2.38;2.17;;;11.70;99.90;;;;;;5080185;28;20055;-65
2023/08/11 00:45:38;;;;;;;2.25;1.83;;;11.80;99.90;;;;;;5176182;28;20229;-67
2023/08/11 00:48:11;;;;;;;1.90;1.75;;;11.90;99.90;;;;;;5129480;28;20039;-67
2023/08/11 00:50:46;;;;;;;2.22;1.85;;;11.80;99.90;;;;;;5112666;28;20066;-66
2023/08/11 00:53:24;;;;;;;3.20;2.13;;;11.80;99.90;;;;;;5096867;28;20053;-66
2023/08/11 00:55:58;;;;;;;4.90;2.00;;;11.70;99.90;;;;;;5105818;28;20047;-66
2023/08/11 00:58:32;;;;;;;1.73;1.63;;;11.70;99.90;;;;;;5082716;28;20047;-68
2023/08/11 01:03:47;;;;;;;2.83;1.88;;;11.70;99.90;;;;;;5230094;28;20056;-65
2023/08/11 01:06:25;;;;;;;2.75;2.20;;;11.60;99.90;;;;;;5208882;28;20051;-63
2023/08/11 01:09:35;;;;;;;2.00;1.83;;;11.60;99.90;;;;;;5218267;28;20077;-67
2023/08/11 01:12:12;;;;;;;1.83;1.73;;;11.60;99.90;;;;;;5214973;28;20524;-67
2023/08/11 01:15:26;;;;;;;2.15;1.73;;;11.50;99.90;;;;;;5221965;28;20597;-67
2023/08/11 01:17:58;;;;;;;2.03;1.77;;;11.40;99.90;;;;;;5207283;28;20390;-64
2023/08/11 01:20:33;;;;;;;2.72;1.70;;;11.30;99.90;;;;;;5222215;28;20070;-66
2023/08/11 01:23:09;;;;;;;2.55;2.05;;;11.20;99.90;;;;;;5204244;28;20036;-68
2023/08/11 01:25:46;;;;;;;2.13;1.73;;;11.20;99.90;;;;;;5207538;28;20067;-63
2023/08/11 01:28:21;;;;;;;4.15;2.00;;;11.10;99.90;;;;;;5206539;28;20052;-66
2023/08/11 01:30:56;;;;;;;;;;;11.10;99.90;;;;;;5185256;28;20482;-66
2023/08/11 01:33:27;;;;;;;1.98;1.80;;;11.10;99.90;;;;;;5203754;28;19920;-65
2023/08/11 01:35:59;;;;;;;2.05;1.83;;;11.10;99.90;;;;;;5243792;28;20036;-64
2023/08/11 01:38:34;;;;;;;2.20;2.00;;;11.10;99.90;;;;;;5239961;28;20044;-67
2023/08/11 01:41:08;;;;;;;2.28;2.08;;;11.10;99.90;;;;;;5240667;28;20052;-66
2023/08/11 01:43:41;;;;;;;;;;;11.00;99.90;;;;;;5241147;28;20025;-66
2023/08/11 01:46:12;;;;;;;2.08;1.88;;;11.00;99.90;;;;;;5201412;28;19921;-67
2023/08/11 01:48:46;;;;;;;1.63;1.52;;;11.10;99.90;;;;;;5224232;28;20039;-65
2023/08/11 01:51:18;;;;;;;2.40;1.90;;;11.10;99.90;;;;;;5202673;28;20111;-65
2023/08/11 01:53:51;;;;;;;2.72;1.92;;;11.10;99.90;;;;;;5233954;28;20051;-68
2023/08/11 01:56:25;;;;;;;1.88;1.77;;;11.10;99.90;;;;;;5222010;28;20044;-66
2023/08/11 01:58:59;;;;;;;2.10;1.90;;;11.20;99.90;;;;;;5219143;28;20039;-69
2023/08/11 02:01:40;;;;;;;2.03;1.83;;;11.30;99.90;;;;;;5214666;28;20063;-70
2023/08/11 02:04:12;;;;;;;3.08;1.95;;;11.20;99.90;;;;;;5245711;28;20079;-68
2023/08/11 02:06:45;;;;;;;2.25;1.73;;;11.20;99.90;;;;;;5219440;28;20201;-67
2023/08/11 02:09:20;;;;;;;2.17;1.98;;;11.30;99.90;;;;;;5208778;28;20048;-69
2023/08/11 02:11:52;;;;;;;1.67;1.52;;;11.20;99.90;;;;;;5185833;28;20032;-66
2023/08/11 02:14:31;;;;;;;2.30;2.10;;;11.20;99.90;;;;;;5208367;28;20056;-69
2023/08/11 02:17:06;;;;;;;2.17;1.90;;;11.10;99.90;;;;;;5220169;28;20016;-66
2023/08/11 02:19:40;;;;;;;;;;;11.20;99.90;;;;;;5202445;28;20044;-66
2023/08/11 02:22:20;;;;;;;1.88;1.52;;;11.10;99.90;;;;;;5234327;28;20223;-65
2023/08/11 02:24:55;;;;;;;1.88;1.58;;;11.10;99.90;;;;;;5237582;28;20039;-65
2023/08/11 02:27:32;;;;;;;2.38;2.15;;;11.00;99.90;;;;;;5195135;28;20048;-67
2023/08/11 02:30:05;;;;;;;1.75;1.48;;;10.90;99.90;;;;;;5219726;28;20286;-70
2023/08/11 02:32:45;;;;;;;2.22;1.70;;;10.90;99.90;;;;;;5217964;28;20523;-65
2023/08/11 02:35:17;;;;;;;2.30;1.88;;;10.80;99.90;;;;;;5241563;28;20051;-65
2023/08/11 02:37:50;;;;;;;2.65;2.13;;;10.80;99.90;;;;;;5217421;28;20039;-68
2023/08/11 02:40:26;;;;;;;2.13;2.00;;;10.70;99.90;;;;;;5186759;28;20324;-66
2023/08/11 02:43:02;;;;;;;2.75;1.70;;;10.70;99.90;;;;;;5203602;28;20052;-68
2023/08/11 02:45:36;;;;;;;3.00;2.00;;;10.70;99.90;;;;;;5217856;28;20028;-67
2023/08/11 02:48:12;;;;;;;2.80;1.85;;;10.60;99.90;;;;;;5210508;28;20527;-66
2023/08/11 02:50:44;;;;;;;2.17;1.90;;;10.60;99.90;;;;;;5207347;28;20039;-66
2023/08/11 02:53:30;;;;;;;2.63;1.80;;;10.50;99.90;;;;;;5218405;28;20040;-64
2023/08/11 02:56:09;;;;;;;2.25;1.70;;;10.50;99.90;;;;;;5211776;28;20314;-68
2023/08/11 02:58:42;;;;;;;2.33;1.80;;;10.60;99.90;;;;;;5222981;28;20343;-69
2023/08/11 03:01:17;;;;;;;2.35;2.15;;;10.50;99.90;;;;;;5229935;28;20336;-67
2023/08/11 03:03:49;;;;;;;2.20;1.83;;;10.60;99.90;;;;;;5205764;28;20058;-67
2023/08/11 03:06:22;;;;;;;3.00;1.92;;;10.60;99.90;;;;;;5221254;28;20031;-69
2023/08/11 03:08:53;;;;;;;2.83;1.98;;;10.60;99.90;;;;;;5221171;28;20082;-67
2023/08/11 03:11:25;;;;;;;2.45;2.17;;;10.70;99.90;;;;;;5192846;28;20057;-63
2023/08/11 03:14:02;;;;;;;2.30;1.80;;;10.60;99.90;;;;;;5213722;28;20026;-65
2023/08/11 03:16:36;;;;;;;2.45;2.08;;;10.60;99.90;;;;;;5219391;28;20036;-69
2023/08/11 03:19:11;;;;;;;2.15;1.90;;;10.60;99.90;;;;;;5216170;28;20052;-67
2023/08/11 03:21:46;;;;;;;2.03;1.83;;;10.50;99.90;;;;;;5188075;28;20038;-69
2023/08/11 03:24:21;;;;;;;2.95;2.00;;;10.60;99.90;;;;;;5219168;28;20509;-68
2023/08/11 03:26:54;;;;;;;2.35;2.05;;;10.50;99.90;;;;;;5221610;28;20032;-66
2023/08/11 03:29:26;;;;;;;2.22;1.98;;;10.60;99.90;;;;;;5206861;28;20043;-69
2023/08/11 03:32:03;;;;;;;2.15;1.95;;;10.60;99.90;;;;;;5185663;28;20040;-65
2023/08/11 03:34:37;;;;;;;2.50;2.30;;;10.50;99.90;;;;;;5218401;28;20040;-66
2023/08/11 03:37:09;;;;;;;;;;;10.50;99.90;;;;;;5172731;28;20038;-67
2023/08/11 03:39:41;;;;;;;2.45;1.85;;;10.50;99.90;;;;;;5164522;28;19912;-67
2023/08/11 03:42:21;;;;;;;2.35;2.08;;;10.50;99.90;;;;;;5205786;28;20048;-69
2023/08/11 03:44:53;;;;;;;2.17;1.95;;;10.40;99.90;;;;;;5214914;28;20524;-65
2023/08/11 03:47:27;;;;;;;1.92;1.73;;;10.40;99.90;;;;;;5194688;28;20048;-68
2023/08/11 03:49:59;;;;;;;;;;;10.40;99.90;;;;;;5203328;28;20329;-67
2023/08/11 03:52:31;;;;;;;2.00;1.80;;;10.40;99.90;;;;;;5229484;28;19913;-66
2023/08/11 03:55:09;;;;;;;2.03;1.88;;;10.40;99.90;;;;;;5196791;28;20276;-68
2023/08/11 03:57:46;;;;;;;2.58;1.70;;;10.40;99.90;;;;;;5210386;28;20048;-68
2023/08/11 04:00:19;;;;;;;3.55;1.85;;;10.50;99.90;;;;;;5217807;28;20040;-68
2023/08/11 04:02:51;;;;;;;2.75;2.10;;;10.50;99.90;;;;;;5166867;28;20043;-66
2023/08/11 04:05:25;;;;;;;2.92;2.25;;;10.60;99.90;;;;;;5202895;28;20044;-70
2023/08/11 04:08:00;;;;;;;2.20;2.00;;;10.60;99.90;;;;;;5201882;28;20456;-68
2023/08/11 04:10:32;;;;;;;2.20;1.88;;;10.70;99.90;;;;;;5213881;28;20042;-71
2023/08/11 04:13:07;;;;;;;4.20;1.90;;;10.90;99.90;;;;;;5202662;28;20044;-63
2023/08/11 04:15:45;;;;;;;3.58;2.03;;;11.00;99.90;;;;;;5218766;28;20029;-68
2023/08/11 04:18:17;;;;;;;2.75;2.10;;;11.10;99.90;;;;;;5216441;28;20563;-65
2023/08/11 04:20:54;;;;;;;3.30;2.03;;;11.10;99.90;;;;;;5223237;28;20640;-65
2023/08/11 04:23:26;;;;;;;1.90;1.80;;;11.40;99.90;;;;;;5202775;28;20044;-69
2023/08/11 04:26:05;;;;;;;3.75;2.22;;;11.60;99.90;;;;;;5217052;28;20040;-68
2023/08/11 04:28:43;;;;;;;4.50;2.10;;;11.60;99.90;;;;;;5201671;28;20044;-66
2023/08/11 04:31:17;;;;;;;2.00;1.80;;;11.90;99.90;;;;;;5189174;28;20049;-67
2023/08/11 04:33:51;;;;;;;2.30;1.67;;;12.20;99.90;;;;;;5208791;28;20043;-66
2023/08/11 04:36:25;;;;;;;2.28;2.05;;;12.40;99.90;;;;;;5206075;28;20043;-66
2023/08/11 04:38:57;;;;;;;1.60;1.50;;;12.60;99.90;;;;;;5226382;28;20048;-65
2023/08/11 04:41:31;;;;;;;1.92;1.73;;;12.90;99.90;;;;;;5229468;28;20357;-65
2023/08/11 04:44:04;;;;;;;;;;;12.80;99.90;;;;;;5190965;28;20040;-65
2023/08/11 04:46:36;;;;;;;2.00;1.90;;;13.20;99.90;;;;;;5205112;28;20199;-65
2023/08/11 04:49:07;;;;;;;1.90;1.70;;;13.50;99.90;;;;;;5220389;28;20052;-66
2023/08/11 04:51:39;;;;;;;2.30;2.10;;;13.90;1.00;;;;;;5207565;28;20044;-67
2023/08/11 04:54:12;;;;;;;2.25;1.80;;;14.10;1.00;;;;;;5191272;28;20370;-68
2023/08/11 04:56:44;;;;;;;1.70;1.60;;;14.50;1.00;;;;;;5217035;28;20063;-66
2023/08/11 04:59:18;;;;;;;1.50;1.40;;;14.80;1.00;;;;;;5236939;28;20029;-66
2023/08/11 05:01:55;;;;;;;2.85;1.80;;;15.10;1.00;;;;;;5228805;28;20036;-68
2023/08/11 05:04:33;;;;;;;2.80;1.75;;;15.40;99.90;;;;;;5197263;28;20051;-70
2023/08/11 05:07:09;;;;;;;2.20;2.03;;;15.70;99.90;;;;;;5144257;28;21349;-70
2023/08/11 05:09:44;;;;;;;2.00;1.77;;;15.90;92.70;;;;;;5206108;28;20028;-68
2023/08/11 05:12:19;;;;;;;1.65;1.55;;;16.20;1.00;;;;;;5202917;28;20044;-68
2023/08/11 05:14:54;;;;;;;1.65;1.55;;;16.30;1.00;;;;;;5222389;28;20127;-69
2023/08/11 05:17:34;;;;;;;2.45;1.83;;;16.50;99.90;;;;;;5219019;28;21452;-66
2023/08/11 05:20:10;;;;;;;1.75;1.52;;;16.70;99.90;;;;;;5190094;28;20052;-67
2023/08/11 05:22:43;;;;;;;2.00;1.80;;;16.90;99.90;;;;;;5191242;28;20082;-66
2023/08/11 05:25:18;;;;;;;2.20;1.70;;;17.20;67.30;;;;;;5225231;28;20042;-69
2023/08/11 05:27:50;;;;;;;5.93;1.80;;;17.40;1.00;;;;;;5218548;28;20037;-68
2023/08/11 05:30:28;;;;;;;2.97;2.00;;;17.60;1.00;;;;;;5203587;28;20040;-66
2023/08/11 05:33:03;;;;;;;1.40;1.30;;;17.90;1.00;;;;;;5189711;28;20333;-67
2023/08/11 05:35:36;;;;;;;;;;;18.20;1.00;;;;;;5208329;28;20036;-67
2023/08/11 05:38:12;;;;;;;1.70;1.60;;;18.50;1.00;;;;;;5182229;28;20297;-68
2023/08/11 05:40:43;;;;;;;2.30;1.85;;;18.70;1.00;;;;;;5098576;28;20053;-67
2023/08/11 05:43:17;;;;;;;1.70;1.60;;;19.00;1.00;;;;;;5212924;28;20412;-70
2023/08/11 05:45:53;;;;;;;2.28;1.23;;;19.20;99.90;;;;;;5199752;28;20167;-67
2023/08/11 05:48:30;;;;;;;3.45;1.88;;;19.40;99.90;;;;;;5185588;28;20047;-68
2023/08/11 05:51:05;;;;;;;2.92;1.85;;;19.60;99.90;;;;;;5208860;28;20044;-70
2023/08/11 05:53:39;;;;;;;4.28;1.90;;;19.80;99.90;;;;;;5196831;28;20044;-68
2023/08/11 05:56:14;;;;;;;2.47;2.20;;;19.80;1.00;;;;;;5206672;28;20033;-66
2023/08/11 05:58:45;;;;;;;2.38;1.92;;;19.90;1.00;;;;;;5201418;28;20051;-69
2023/08/11 06:01:17;;;;;;;2.50;1.88;;;20.00;99.50;;;;;;5236681;28;20227;-68
2023/08/11 06:03:50;;;;;;;2.00;1.80;;;20.20;99.90;;;;;;5195694;28;20045;-66
2023/08/11 06:06:22;;;;;;;2.80;1.67;;;20.40;99.90;;;;;;5191731;28;20094;-67
2023/08/11 06:08:59;;;;;;;2.40;2.03;;;20.60;99.90;;;;;;5187714;28;20059;-67
2023/08/11 06:11:30;;;;;;;2.67;2.30;;;21.00;99.90;;;;;;5201239;28;20044;-68
2023/08/11 06:14:03;;;;;;;2.88;2.03;;;21.20;99.90;;;;;;5193303;28;20115;-69
2023/08/11 06:16:37;;;;;;;5.43;2.03;;;21.30;99.90;;;;;;5223656;28;20028;-65
2023/08/11 06:19:09;;;;;;;1.98;1.65;;;21.60;99.90;;;;;;5216589;28;20040;-67
2023/08/11 06:21:46;;;;;;;2.30;1.90;;;21.70;99.90;;;;;;5220328;28;20042;-69
2023/08/11 06:24:18;;;;;;;2.13;1.83;;;21.70;1.00;;;;;;5215745;28;20039;-65
2023/08/11 06:26:54;;;;;;;1.75;1.58;;;22.00;99.90;;;;;;5222721;28;20048;-68
2023/08/11 06:29:31;;;;;;;1.55;1.45;;;21.90;1.70;;;;;;5214442;28;20032;-69
2023/08/11 06:32:04;;;;;;;1.95;1.70;;;22.00;99.90;;;;;;5206769;28;20036;-68
2023/08/11 06:34:36;;;;;;;2.47;1.70;;;22.20;1.00;;;;;;5198331;28;20033;-67
2023/08/11 06:37:09;;;;;;;2.40;1.70;;;22.10;1.00;;;;;;5206926;28;20058;-69
2023/08/11 06:39:41;;;;;;;1.90;1.35;;;22.10;1.00;;;;;;5202871;28;20127;-67
2023/08/11 06:42:24;;;;;;;2.40;1.40;;;22.10;1.00;;;;;;5207948;28;20035;-68
2023/08/11 06:44:59;;;;;;;1.80;1.50;;;22.50;1.00;;;;;;5200388;28;20049;-66
2023/08/11 06:47:32;;;;;;;2.88;1.52;;;22.70;1.00;;;;;;5198626;28;21188;-69
2023/08/11 06:50:05;;;;;;;2.20;2.00;;;23.00;1.00;;;;;;5200540;28;20059;-67
2023/08/11 06:52:39;;;;;;;1.63;1.40;;;23.10;1.00;;;;;;5213139;28;20018;-71
2023/08/11 06:55:10;;;;;;;2.67;1.50;;;23.00;1.00;;;;;;5188655;28;20032;-69
2023/08/11 06:57:42;;;;;;;2.08;1.50;;;22.90;1.00;;;;;;5188365;28;20036;-68
2023/08/11 07:00:14;;;;;;;2.75;1.55;;;23.30;1.00;;;;;;5223982;28;20036;-69
2023/08/11 07:02:46;;;;;;;1.48;1.38;;;23.60;1.00;;;;;;5203018;28;20043;-67
2023/08/11 07:05:20;;;;;;;2.38;1.75;;;24.00;1.00;;;;;;5217336;28;20048;-68
2023/08/11 07:07:55;;;;;;;3.08;1.58;;;24.10;99.90;;;;;;5196070;28;20051;-70
2023/08/11 07:10:30;;;;;;;1.70;1.42;;;24.00;99.90;;;;;;5200579;28;20040;-68
2023/08/11 07:13:01;;;;;;;1.23;1.13;;;23.90;1.00;;;;;;5201168;28;20046;-70
2023/08/11 07:15:35;;;;;;;1.65;1.50;;;24.20;99.90;;;;;;5235014;28;20046;-68
2023/08/11 07:18:10;;;;;;;1.52;1.20;;;24.20;99.90;;;;;;5223942;28;20400;-70
2023/08/11 07:20:44;;;;;;;2.72;1.48;;;24.20;99.90;;;;;;5195091;28;20880;-70
2023/08/11 07:23:21;;;;;;;2.75;1.52;;;24.30;1.00;;;;;;5233401;28;20036;-71
2023/08/11 07:25:52;;;;;;;2.55;1.40;;;24.30;1.00;;;;;;5172547;28;20488;-69
2023/08/11 07:28:25;;;;;;;1.98;1.70;;;24.40;1.00;;;;;;5195966;28;20632;-69
2023/08/11 07:30:58;;;;;;;2.47;1.42;;;24.80;99.90;;;;;;5202059;28;20060;-67
2023/08/11 07:33:34;;;;;;;1.10;1.00;;;24.60;99.90;;;;;;5217694;28;20040;-68
2023/08/11 07:36:06;;;;;;;2.88;1.30;;;24.20;99.90;;;;;;5226937;28;20028;-66
2023/08/11 07:38:39;;;;;;;1.45;1.33;;;24.50;52.10;;;;;;5201803;28;20041;-67
2023/08/11 07:41:11;;;;;;;1.70;1.60;;;24.70;99.90;;;;;;5200751;28;20037;-68
2023/08/11 07:43:42;;;;;;;5.07;1.45;;;25.10;21.60;;;;;;5235419;28;20263;-67
2023/08/11 07:46:14;;;;;;;1.92;1.63;;;25.10;1.00;;;;;;5174097;28;20353;-67
2023/08/11 07:48:45;;;;;;;3.15;1.35;;;25.20;1.00;;;;;;5212408;28;20044;-69
2023/08/11 07:51:17;;;;;;;1.65;1.55;;;25.10;99.90;;;;;;5107847;28;20044;-70
2023/08/11 07:53:51;;;;;;;1.60;1.20;;;25.30;99.90;;;;;;5189384;28;20226;-67
2023/08/11 07:56:28;;;;;;;4.90;1.50;;;25.50;99.90;;;;;;5187625;28;20123;-67
2023/08/11 07:59:02;;;;;;;3.17;1.60;;;25.80;99.90;;;;;;5208509;28;20341;-69
2023/08/11 08:01:33;;;;;;;1.77;1.65;;;25.80;1.00;;;;;;5101922;28;20048;-67
2023/08/11 08:04:05;;;;;;;1.50;1.40;;;26.00;99.90;;;;;;5232248;28;20032;-66
2023/08/11 08:06:45;;;;;;;1.42;1.23;;;26.50;1.00;;;;;;5212504;28;20189;-67
2023/08/11 08:09:19;;;;;;;2.97;1.33;;;26.80;1.00;;;;;;5171999;28;20047;-69
2023/08/11 08:11:51;;;;;;;2.05;1.60;;;27.00;99.90;;;;;;5218952;28;20024;-66
2023/08/11 08:14:24;;;;;;;2.55;1.42;;;26.90;1.00;;;;;;5199847;28;20050;-69
2023/08/11 08:17:01;;;;;;;2.40;1.65;;;26.00;82.50;;;;;;5168078;28;20073;-71
2023/08/11 08:19:32;;;;;;;2.20;1.70;;;26.30;1.00;;;;;;5197890;28;20052;-69
2023/08/11 08:22:07;;;;;;;1.08;1.00;;;27.00;1.00;;;;;;5193839;28;20040;-67
2023/08/11 08:24:39;;;;;;;2.67;1.40;;;26.60;99.90;;;;;;5219272;28;20028;-70
2023/08/11 08:27:10;;;;;;;1.15;1.02;;;26.00;99.90;;;;;;5224329;28;20244;-67
2023/08/11 08:29:44;;;;;;;3.88;1.30;;;25.50;1.00;;;;;;5199473;28;20044;-68
2023/08/11 08:32:20;;;;;;;1.73;1.35;;;25.60;99.90;;;;;;5199808;28;20049;-68
2023/08/11 08:34:54;;;;;;;1.13;1.02;;;25.10;1.00;;;;;;5223136;28;20044;-68
2023/08/11 08:37:28;;;;;;;1.95;1.17;;;25.40;1.00;;;;;;5234393;28;20039;-67
2023/08/11 08:40:02;;;;;;;1.35;0.98;;;25.30;1.00;;;;;;5178460;28;20041;-68
2023/08/11 08:42:34;;;;;;;1.17;1.07;;;25.10;99.90;;;;;;5201653;28;20304;-66
2023/08/11 08:45:12;;;;;;;1.42;1.33;;;25.10;1.00;;;;;;5180840;28;20638;-71
2023/08/11 08:47:45;;;;;;;1.52;1.27;;;24.90;1.00;;;;;;5176732;28;20330;-69
2023/08/11 08:50:20;;;;;;;1.60;1.10;;;24.40;99.90;;;;;;5193979;28;20047;-66
2023/08/11 08:52:53;;;;;;;1.58;1.20;;;24.50;1.00;;;;;;5190807;28;20049;-66
2023/08/11 08:55:30;;;;;;;1.05;0.98;;;24.60;1.00;;;;;;5203646;28;20048;-67
2023/08/11 08:58:01;;;;;;;1.13;1.02;;;24.90;1.00;;;;;;5226605;28;20040;-68
2023/08/11 09:00:44;;;;;;;1.30;1.13;;;24.80;1.00;;;;;;5190129;28;20083;-69
2023/08/11 09:03:18;;;;;;;1.50;1.00;;;25.10;1.00;;;;;;5216433;28;20279;-68
2023/08/11 09:05:50;;;;;;;1.52;1.42;;;25.40;1.00;;;;;;5201388;28;20075;-71
2023/08/11 09:08:28;;;;;;;0.90;0.90;;;25.80;99.90;;;;;;5200818;28;20225;-68
2023/08/11 09:11:02;;;;;;;1.40;1.30;;;26.10;1.00;;;;;;5204529;28;20340;-67
2023/08/11 09:13:43;;;;;;;1.65;1.10;;;26.00;1.00;;;;;;5217551;28;20046;-68
2023/08/11 09:16:17;;;;;;;2.67;1.08;;;25.90;1.00;;;;;;5203606;28;20036;-66
2023/08/11 09:18:52;;;;;;;1.77;1.20;;;25.70;1.00;;;;;;5214844;28;20032;-70
2023/08/11 09:21:28;;;;;;;1.63;1.10;;;26.00;34.10;;;;;;5201713;28;20275;-66
2023/08/11 09:24:00;;;;;;;2.53;1.27;;;25.80;1.00;;;;;;5225720;28;20034;-64
2023/08/11 09:26:31;;;;;;;1.20;1.10;;;26.10;1.00;;;;;;5234383;28;20047;-69
2023/08/11 09:29:09;;;;;;;1.00;0.90;;;26.60;99.90;;;;;;5239351;28;20039;-67
2023/08/11 09:31:46;;;;;;;1.40;1.20;;;26.80;1.00;;;;;;5211762;28;20359;-68
2023/08/11 09:34:20;;;;;;;2.55;0.90;;;26.60;51.30;;;;;;5237445;28;20048;-65
2023/08/11 09:36:55;;;;;;;1.30;1.20;;;26.70;1.00;;;;;;5220921;28;20058;-66
2023/08/11 09:39:30;;;;;;;1.15;0.90;;;26.00;98.90;;;;;;5190093;28;20041;-68
2023/08/11 09:42:07;;;;;;;1.10;1.00;;;25.40;99.90;;;;;;5206376;28;20051;-69
2023/08/11 09:44:39;;;;;;;1.27;1.05;;;25.10;99.90;;;;;;5241246;28;20036;-68
2023/08/11 09:47:11;;;;;;;1.38;1.15;;;25.40;92.40;;;;;;5185946;28;20048;-69
2023/08/11 09:49:53;;;;;;;3.40;1.30;;;25.70;99.90;;;;;;5222406;28;20055;-66
2023/08/11 09:52:30;;;;;;;1.23;1.10;;;26.00;1.00;;;;;;5188101;28;20249;-66
2023/08/11 09:55:06;;;;;;;1.73;1.23;;;25.90;99.90;;;;;;5196111;28;20337;-66
2023/08/11 09:57:41;;;;;;;1.10;1.00;;;26.10;99.90;;;;;;5209278;28;20053;-67
2023/08/11 10:00:13;;;;;;;1.17;1.05;;;26.30;1.00;;;;;;5175839;28;20250;-65
2023/08/11 10:03:05;;;;;;;1.25;1.15;;;25.90;99.90;;;;;;5197078;28;20048;-65
2023/08/11 10:05:48;;;;;;;1.08;1.00;;;26.50;1.00;;;;;;5193325;28;20037;-67
2023/08/11 10:08:23;;;;;;;1.30;0.98;;;26.50;99.90;;;;;;5202444;28;20040;-68
2023/08/11 10:10:54;;;;;;;1.50;0.90;;;26.70;1.00;;;;;;5169836;28;20396;-66
2023/08/11 10:13:30;;;;;;;1.17;1.08;;;27.20;1.00;;;;;;5185107;28;20044;-66
2023/08/11 10:16:09;;;;;;;1.10;1.00;;;27.10;99.90;;;;;;5182514;28;20058;-70
2023/08/11 10:18:46;;;;;;;1.30;1.00;;;26.90;1.00;;;;;;5201701;28;20234;-70
2023/08/11 10:21:18;;;;;;;0.98;0.90;;;27.20;1.00;;;;;;5219474;28;20313;-67
2023/08/11 10:23:56;;;;;;;2.13;1.10;;;27.50;1.00;;;;;;5200345;28;20053;-67
2023/08/11 10:26:31;;;;;;;1.35;1.23;;;28.00;1.00;;;;;;5206867;28;20048;-67
2023/08/11 10:29:03;;;;;;;0.98;0.80;;;29.00;99.90;;;;;;5201489;28;20058;-66
2023/08/11 10:31:35;;;;;;;3.58;1.88;;;28.70;99.90;;;;;;5181920;28;20053;-68
2023/08/11 10:34:07;;;;;;;1.08;1.02;;;28.60;99.90;;;;;;5239539;28;20033;-66
2023/08/11 10:36:46;;;;;;;1.92;1.40;;;28.50;1.00;;;;;;5210955;28;20057;-65
2023/08/11 10:39:20;;;;;;;3.03;0.93;;;28.00;1.00;;;;;;5222283;28;20036;-68
2023/08/11 10:41:52;;;;;;;1.20;0.90;;;28.70;1.00;;;;;;5222617;28;20040;-67
2023/08/11 10:44:29;;;;;;;1.02;0.93;;;30.50;27.90;;;;;;5213102;28;20329;-66
2023/08/11 10:47:08;;;;;;;1.10;1.00;;;30.40;99.90;;;;;;5214714;28;20041;-67
2023/08/11 10:49:42;;;;;;;2.78;1.00;;;31.20;99.90;;;;;;5211834;28;20033;-69
2023/08/11 10:52:20;;;;;;;1.00;0.90;;;31.30;1.00;;;;;;5221514;28;20036;-68
2023/08/11 10:54:59;;;;;;;0.98;0.85;;;32.60;1.00;;;;;;5229684;28;20349;-67
2023/08/11 10:57:31;;;;;;;0.80;0.80;;;33.10;1.00;;;;;;5154306;28;20043;-68
2023/08/11 11:00:03;;;;;;;0.98;0.90;;;33.70;1.00;;;;;;5220200;28;20294;-73
2023/08/11 11:02:35;;;;;;;1.52;1.15;;;33.20;1.00;;;;;;5199702;28;20466;-69
2023/08/11 11:05:11;;;;;;;3.17;1.02;;;32.10;1.00;;;;;;5201497;28;20047;-71
2023/08/11 11:07:51;;;;;;;1.25;1.10;;;32.30;1.00;;;;;;5226105;28;20035;-66
2023/08/11 11:10:22;;;;;;;1.52;1.27;;;31.80;1.00;;;;;;5216994;28;20048;-68
2023/08/11 11:12:55;;;;;;;3.25;1.10;;;31.90;1.00;;;;;;5238698;28;20345;-66
2023/08/11 11:15:33;;;;;;;1.13;0.90;;;30.30;99.90;;;;;;5235922;28;20064;-68
2023/08/11 11:18:07;;;;;;;1.23;1.10;;;30.90;99.90;;;;;;5220898;28;20043;-70
2023/08/11 11:20:39;;;;;;;0.93;0.88;;;32.00;99.90;;;;;;5205257;28;20063;-69
2023/08/11 11:23:13;;;;;;;1.63;1.40;;;33.10;99.90;;;;;;5231523;28;20213;-68
2023/08/11 11:25:45;;;;;;;2.92;1.40;;;31.60;99.90;;;;;;5183858;28;20044;-65
2023/08/11 11:28:21;;;;;;;1.80;1.05;;;31.30;1.00;;;;;;5118216;28;20325;-69
2023/08/11 11:30:53;;;;;;;1.30;1.05;;;32.00;99.90;;;;;;5196623;28;20399;-69
2023/08/11 11:33:25;;;;;;;1.27;1.17;;;32.10;99.90;;;;;;5198817;28;20044;-66
2023/08/11 11:36:05;;;;;;;1.52;1.20;;;33.00;99.90;;;;;;5200336;28;20059;-68
2023/08/11 11:38:37;;;;;;;2.03;1.52;;;33.10;99.90;;;;;;5201928;28;20473;-71
2023/08/11 11:41:17;;;;;;;1.48;1.25;;;33.30;1.00;;;;;;5097959;28;20043;-70
2023/08/11 11:43:54;;;;;;;1.33;1.15;;;32.10;99.90;;;;;;5203983;28;20057;-65
2023/08/11 11:46:31;;;;;;;1.35;1.25;;;31.10;99.90;;;;;;5181764;28;20045;-68
2023/08/11 11:49:13;;;;;;;0.85;0.85;;;32.30;99.90;;;;;;5187793;28;20048;-67
2023/08/11 11:51:46;;;;;;;1.20;1.10;;;32.60;1.00;;;;;;5188577;28;20567;-69
2023/08/11 11:54:17;;;;;;;2.22;1.13;;;31.60;1.00;;;;;;5184271;28;20049;-69
2023/08/11 11:56:50;;;;;;;1.02;0.98;;;32.60;1.00;;;;;;5152689;28;20428;-68
2023/08/11 11:59:27;;;;;;;1.58;1.05;;;31.10;99.90;;;;;;5219793;28;20055;-68
2023/08/11 12:02:05;;;;;;;1.48;1.20;;;32.30;1.00;;;;;;5181191;28;20525;-68
2023/08/11 12:04:40;;;;;;;11.90;1.52;;;31.00;1.00;;;;;;5133608;28;20586;-66
2023/08/11 12:07:32;;;;;;;1.33;1.10;;;31.60;1.00;;;;;;5202309;28;20044;-68
2023/08/11 12:10:07;;;;;;;1.20;1.00;;;31.10;1.00;;;;;;5221703;28;20040;-68
2023/08/11 12:12:39;;;;;;;1.00;0.90;;;31.40;1.00;;;;;;5222708;28;20040;-69
2023/08/11 12:15:17;;;;;;;1.77;1.05;;;31.30;1.00;;;;;;5176033;28;20044;-67
2023/08/11 12:17:53;;;;;;;0.95;0.88;;;32.00;1.00;;;;;;5190625;28;20054;-69
2023/08/11 12:20:25;;;;;;;2.30;1.17;;;33.70;1.00;;;;;;5196360;28;20122;-66
2023/08/11 12:23:02;;;;;;;1.92;1.40;;;35.40;1.00;;;;;;5200693;28;20056;-70
2023/08/11 12:25:36;;;;;;;1.08;1.08;;;35.70;1.00;;;;;;5197570;28;20047;-66
2023/08/11 12:28:08;;;;;;;1.55;1.20;;;34.10;99.90;;;;;;5195769;28;20039;-69
2023/08/11 12:30:40;;;;;;;2.00;1.10;;;33.60;1.00;;;;;;5194481;28;20050;-69
2023/08/11 12:33:11;;;;;;;1.23;1.10;;;33.40;99.90;;;;;;5195613;28;20048;-65
2023/08/11 12:35:49;;;;;;;1.65;1.55;;;33.60;1.00;;;;;;5210162;28;20045;-69
2023/08/11 12:38:20;;;;;;;1.13;1.02;;;35.50;1.00;;;;;;5207370;28;20036;-65
2023/08/11 12:40:55;;;;;;;1.17;1.08;;;35.40;1.00;;;;;;5210110;28;20051;-69
2023/08/11 12:43:26;;;;;;;1.40;1.30;;;35.90;1.00;;;;;;5180471;28;20040;-70
2023/08/11 12:45:58;;;;;;;2.35;1.58;;;34.60;1.00;;;;;;5195183;28;20040;-69
2023/08/11 12:48:40;;;;;;;2.35;1.10;;;35.40;1.00;;;;;;5213706;28;20040;-66
2023/08/11 12:51:12;;;;;;;1.90;1.13;;;37.50;1.00;;;;;;5187294;28;20029;-71
2023/08/11 12:53:47;;;;;;;0.90;0.90;;;38.20;1.00;;;;;;5207391;28;20036;-69
2023/08/11 12:56:25;;;;;;;1.00;1.00;;;36.50;1.00;;;;;;5212140;28;20037;-68
2023/08/11 12:58:59;;;;;;;1.05;0.98;;;35.10;99.90;;;;;;5210580;28;20040;-69
2023/08/11 13:01:38;;;;;;;1.45;1.00;;;33.20;99.90;;;;;;5194192;28;20072;-69
2023/08/11 13:04:14;;;;;;;0.95;0.85;;;33.80;21.00;;;;;;5225188;28;20032;-70
2023/08/11 13:06:48;;;;;;;1.13;0.85;;;34.10;1.00;;;;;;5207983;28;20044;-66
2023/08/11 13:09:20;;;;;;;1.20;1.10;;;35.50;1.00;;;;;;5190658;28;20364;-69
2023/08/11 13:11:55;;;;;;;1.20;1.10;;;35.90;99.90;;;;;;5236401;28;20043;-68
2023/08/11 13:14:30;;;;;;;1.02;0.90;;;35.90;1.00;;;;;;5190861;28;20052;-69
2023/08/11 13:17:02;;;;;;;1.00;1.00;;;35.50;99.90;;;;;;5232961;28;20037;-68
2023/08/11 13:19:36;;;;;;;1.10;1.00;;;36.50;1.00;;;;;;5181355;28;20051;-68
2023/08/11 13:22:11;;;;;;;1.67;1.20;;;36.50;99.90;;;;;;5188311;28;20043;-67
2023/08/11 13:24:48;;;;;;;1.30;0.85;;;35.50;99.90;;;;;;5137348;28;20035;-66
2023/08/11 13:27:19;;;;;;;1.10;1.00;;;35.40;94.70;;;;;;5202570;28;20502;-67
2023/08/11 13:29:51;;;;;;;1.33;1.10;;;36.20;99.90;;;;;;5217081;28;20043;-67
2023/08/11 13:32:28;;;;;;;1.88;1.20;;;35.10;1.00;;;;;;5188617;28;20047;-67
2023/08/11 13:35:04;;;;;;;1.13;1.05;;;35.70;99.90;;;;;;5171159;28;20124;-67